sensor_id;sensor_type;location;lat;lon;timestamp;temperature;humidity
44537;DHT22;30245;51.966;6.292;2022-11-13T00:02:08;15.10;54.10
44537;DHT22;30245;51.966;6.292;2022-11-13T00:04:33;15.00;54.20
44537;DHT22;30245;51.966;6.292;2022-11-13T00:06:59;15.00;54.40
44537;DHT22;30245;51.966;6.292;2022-11-13T00:09:25;15.00;54.40
44537;DHT22;30245;51.966;6.292;2022-11-13T00:11:50;14.90;55.00
44537;DHT22;30245;51.966;6.292;2022-11-13T00:14:16;14.90;54.50
44537;DHT22;30245;51.966;6.292;2022-11-13T00:16:41;14.90;54.50
44537;DHT22;30245;51.966;6.292;2022-11-13T00:19:07;14.80;54.50
44537;DHT22;30245;51.966;6.292;2022-11-13T00:21:32;14.80;54.60
44537;DHT22;30245;51.966;6.292;2022-11-13T00:23:58;14.70;54.60
44537;DHT22;30245;51.966;6.292;2022-11-13T00:26:28;14.70;54.60
44537;DHT22;30245;51.966;6.292;2022-11-13T00:28:57;14.70;54.60
44537;DHT22;30245;51.966;6.292;2022-11-13T00:31:23;14.70;54.60
44537;DHT22;30245;51.966;6.292;2022-11-13T00:33:49;14.80;54.60
44537;DHT22;30245;51.966;6.292;2022-11-13T00:36:17;14.70;54.50
44537;DHT22;30245;51.966;6.292;2022-11-13T00:38:43;14.70;54.50
44537;DHT22;30245;51.966;6.292;2022-11-13T00:41:09;14.70;54.50
44537;DHT22;30245;51.966;6.292;2022-11-13T00:43:34;14.70;54.50
44537;DHT22;30245;51.966;6.292;2022-11-13T00:46:00;14.70;54.50
44537;DHT22;30245;51.966;6.292;2022-11-13T00:48:25;14.60;54.50
44537;DHT22;30245;51.966;6.292;2022-11-13T00:50:51;14.60;54.60
44537;DHT22;30245;51.966;6.292;2022-11-13T00:53:17;14.60;54.60
44537;DHT22;30245;51.966;6.292;2022-11-13T00:55:43;14.60;54.60
44537;DHT22;30245;51.966;6.292;2022-11-13T00:58:11;14.50;54.60
44537;DHT22;30245;51.966;6.292;2022-11-13T01:00:37;14.50;54.70
44537;DHT22;30245;51.966;6.292;2022-11-13T01:03:03;14.50;54.80
44537;DHT22;30245;51.966;6.292;2022-11-13T01:05:29;14.50;54.80
44537;DHT22;30245;51.966;6.292;2022-11-13T01:07:55;14.50;54.80
44537;DHT22;30245;51.966;6.292;2022-11-13T01:10:22;14.50;54.80
44537;DHT22;30245;51.966;6.292;2022-11-13T01:12:48;14.50;54.80
44537;DHT22;30245;51.966;6.292;2022-11-13T01:15:13;14.50;54.90
44537;DHT22;30245;51.966;6.292;2022-11-13T01:17:39;14.40;54.90
44537;DHT22;30245;51.966;6.292;2022-11-13T01:20:05;14.40;55.00
44537;DHT22;30245;51.966;6.292;2022-11-13T01:22:31;14.40;55.00
44537;DHT22;30245;51.966;6.292;2022-11-13T01:24:56;14.40;55.00
44537;DHT22;30245;51.966;6.292;2022-11-13T01:27:22;14.40;54.90
44537;DHT22;30245;51.966;6.292;2022-11-13T01:29:48;14.30;54.90
44537;DHT22;30245;51.966;6.292;2022-11-13T01:32:13;14.30;54.90
44537;DHT22;30245;51.966;6.292;2022-11-13T01:34:39;14.30;54.80
44537;DHT22;30245;51.966;6.292;2022-11-13T01:37:04;14.30;54.90
44537;DHT22;30245;51.966;6.292;2022-11-13T01:39:30;14.30;54.80
44537;DHT22;30245;51.966;6.292;2022-11-13T01:41:55;14.30;54.80
44537;DHT22;30245;51.966;6.292;2022-11-13T01:44:21;14.20;54.90
44537;DHT22;30245;51.966;6.292;2022-11-13T01:46:54;14.20;54.90
44537;DHT22;30245;51.966;6.292;2022-11-13T01:49:34;14.30;55.00
44537;DHT22;30245;51.966;6.292;2022-11-13T01:52:03;14.20;55.00
44537;DHT22;30245;51.966;6.292;2022-11-13T01:54:33;14.20;55.00
44537;DHT22;30245;51.966;6.292;2022-11-13T01:57:01;14.20;55.00
44537;DHT22;30245;51.966;6.292;2022-11-13T01:59:31;14.20;55.10
44537;DHT22;30245;51.966;6.292;2022-11-13T02:01:59;14.20;55.00
44537;DHT22;30245;51.966;6.292;2022-11-13T02:04:25;14.10;54.90
44537;DHT22;30245;51.966;6.292;2022-11-13T02:06:59;14.20;54.90
44537;DHT22;30245;51.966;6.292;2022-11-13T02:09:28;14.10;54.90
44537;DHT22;30245;51.966;6.292;2022-11-13T02:11:54;14.10;55.00
44537;DHT22;30245;51.966;6.292;2022-11-13T02:14:22;14.10;55.00
44537;DHT22;30245;51.966;6.292;2022-11-13T02:16:51;14.10;55.00
44537;DHT22;30245;51.966;6.292;2022-11-13T02:19:29;14.10;54.90
44537;DHT22;30245;51.966;6.292;2022-11-13T02:22:15;14.10;55.00
44537;DHT22;30245;51.966;6.292;2022-11-13T02:24:46;14.10;55.00
44537;DHT22;30245;51.966;6.292;2022-11-13T02:27:37;14.00;55.50
44537;DHT22;30245;51.966;6.292;2022-11-13T02:32:41;14.00;54.90
44537;DHT22;30245;51.966;6.292;2022-11-13T02:35:07;14.00;54.90
44537;DHT22;30245;51.966;6.292;2022-11-13T02:37:33;14.00;54.90
44537;DHT22;30245;51.966;6.292;2022-11-13T02:39:58;14.00;54.90
44537;DHT22;30245;51.966;6.292;2022-11-13T02:42:24;14.00;54.90
44537;DHT22;30245;51.966;6.292;2022-11-13T02:44:49;14.00;54.80
44537;DHT22;30245;51.966;6.292;2022-11-13T02:47:15;14.00;54.90
44537;DHT22;30245;51.966;6.292;2022-11-13T02:49:40;14.00;54.80
44537;DHT22;30245;51.966;6.292;2022-11-13T02:52:06;14.00;54.80
44537;DHT22;30245;51.966;6.292;2022-11-13T02:54:31;14.10;54.90
44537;DHT22;30245;51.966;6.292;2022-11-13T02:56:57;14.10;54.90
44537;DHT22;30245;51.966;6.292;2022-11-13T02:59:22;14.10;54.90
44537;DHT22;30245;51.966;6.292;2022-11-13T03:01:48;14.10;54.80
44537;DHT22;30245;51.966;6.292;2022-11-13T03:04:13;14.10;54.80
44537;DHT22;30245;51.966;6.292;2022-11-13T03:06:39;14.10;54.70
44537;DHT22;30245;51.966;6.292;2022-11-13T03:09:05;14.10;54.70
44537;DHT22;30245;51.966;6.292;2022-11-13T03:11:31;14.10;54.70
44537;DHT22;30245;51.966;6.292;2022-11-13T03:13:56;14.10;54.70
44537;DHT22;30245;51.966;6.292;2022-11-13T03:16:22;14.10;54.70
44537;DHT22;30245;51.966;6.292;2022-11-13T03:18:48;14.10;54.60
44537;DHT22;30245;51.966;6.292;2022-11-13T03:21:14;14.10;54.60
44537;DHT22;30245;51.966;6.292;2022-11-13T03:23:41;14.10;54.70
44537;DHT22;30245;51.966;6.292;2022-11-13T03:26:11;14.10;54.70
44537;DHT22;30245;51.966;6.292;2022-11-13T03:28:37;14.00;54.60
44537;DHT22;30245;51.966;6.292;2022-11-13T03:31:03;14.10;54.70
44537;DHT22;30245;51.966;6.292;2022-11-13T03:33:29;14.10;54.70
44537;DHT22;30245;51.966;6.292;2022-11-13T03:35:55;14.00;54.60
44537;DHT22;30245;51.966;6.292;2022-11-13T03:38:20;14.10;54.60
44537;DHT22;30245;51.966;6.292;2022-11-13T03:40:46;14.00;54.60
44537;DHT22;30245;51.966;6.292;2022-11-13T03:43:12;14.00;54.60
44537;DHT22;30245;51.966;6.292;2022-11-13T03:45:37;14.00;54.60
44537;DHT22;30245;51.966;6.292;2022-11-13T03:48:03;14.00;54.60
44537;DHT22;30245;51.966;6.292;2022-11-13T03:50:29;14.00;54.50
44537;DHT22;30245;51.966;6.292;2022-11-13T03:52:54;14.00;54.50
44537;DHT22;30245;51.966;6.292;2022-11-13T03:55:20;13.90;54.50
44537;DHT22;30245;51.966;6.292;2022-11-13T03:57:46;13.90;54.60
44537;DHT22;30245;51.966;6.292;2022-11-13T04:00:13;13.90;54.60
44537;DHT22;30245;51.966;6.292;2022-11-13T04:02:39;13.80;54.50
44537;DHT22;30245;51.966;6.292;2022-11-13T04:05:05;13.80;54.60
44537;DHT22;30245;51.966;6.292;2022-11-13T04:07:31;13.80;54.60
44537;DHT22;30245;51.966;6.292;2022-11-13T04:09:56;13.70;54.60
44537;DHT22;30245;51.966;6.292;2022-11-13T04:12:22;13.60;54.60
44537;DHT22;30245;51.966;6.292;2022-11-13T04:14:47;13.60;54.70
44537;DHT22;30245;51.966;6.292;2022-11-13T04:17:13;13.60;54.80
44537;DHT22;30245;51.966;6.292;2022-11-13T04:19:38;13.60;54.80
44537;DHT22;30245;51.966;6.292;2022-11-13T04:22:04;13.60;54.80
44537;DHT22;30245;51.966;6.292;2022-11-13T04:24:30;13.60;54.70
44537;DHT22;30245;51.966;6.292;2022-11-13T04:26:55;13.50;54.60
44537;DHT22;30245;51.966;6.292;2022-11-13T04:29:21;13.60;54.80
44537;DHT22;30245;51.966;6.292;2022-11-13T04:31:46;13.50;54.60
44537;DHT22;30245;51.966;6.292;2022-11-13T04:34:12;13.50;55.30
44537;DHT22;30245;51.966;6.292;2022-11-13T04:36:37;13.40;54.70
44537;DHT22;30245;51.966;6.292;2022-11-13T04:39:03;13.30;54.80
44537;DHT22;30245;51.966;6.292;2022-11-13T04:41:29;13.40;54.90
44537;DHT22;30245;51.966;6.292;2022-11-13T04:44:13;13.40;54.90
44537;DHT22;30245;51.966;6.292;2022-11-13T04:46:39;13.30;55.50
44537;DHT22;30245;51.966;6.292;2022-11-13T04:49:04;13.30;54.80
44537;DHT22;30245;51.966;6.292;2022-11-13T04:51:30;13.30;54.80
44537;DHT22;30245;51.966;6.292;2022-11-13T04:53:55;13.30;54.80
44537;DHT22;30245;51.966;6.292;2022-11-13T04:56:21;13.40;54.80
44537;DHT22;30245;51.966;6.292;2022-11-13T04:58:47;13.30;54.70
44537;DHT22;30245;51.966;6.292;2022-11-13T05:01:12;13.30;54.70
44537;DHT22;30245;51.966;6.292;2022-11-13T05:03:38;13.30;54.70
44537;DHT22;30245;51.966;6.292;2022-11-13T05:06:05;13.30;54.70
44537;DHT22;30245;51.966;6.292;2022-11-13T05:08:32;13.30;54.80
44537;DHT22;30245;51.966;6.292;2022-11-13T05:10:57;13.20;54.80
44537;DHT22;30245;51.966;6.292;2022-11-13T05:13:23;13.20;54.80
44537;DHT22;30245;51.966;6.292;2022-11-13T05:15:49;13.20;54.70
44537;DHT22;30245;51.966;6.292;2022-11-13T05:18:15;13.10;54.70
44537;DHT22;30245;51.966;6.292;2022-11-13T05:20:40;13.10;54.80
44537;DHT22;30245;51.966;6.292;2022-11-13T05:23:06;13.10;54.90
44537;DHT22;30245;51.966;6.292;2022-11-13T05:25:32;13.10;54.90
44537;DHT22;30245;51.966;6.292;2022-11-13T05:27:57;13.00;54.80
44537;DHT22;30245;51.966;6.292;2022-11-13T05:30:23;13.00;54.80
44537;DHT22;30245;51.966;6.292;2022-11-13T05:32:50;13.00;54.80
44537;DHT22;30245;51.966;6.292;2022-11-13T05:35:15;13.00;54.80
44537;DHT22;30245;51.966;6.292;2022-11-13T05:37:41;13.00;54.80
44537;DHT22;30245;51.966;6.292;2022-11-13T05:40:07;13.00;54.90
44537;DHT22;30245;51.966;6.292;2022-11-13T05:42:33;12.90;54.80
44537;DHT22;30245;51.966;6.292;2022-11-13T05:44:58;12.90;54.80
44537;DHT22;30245;51.966;6.292;2022-11-13T05:47:24;12.90;54.80
44537;DHT22;30245;51.966;6.292;2022-11-13T05:49:49;12.90;54.80
44537;DHT22;30245;51.966;6.292;2022-11-13T05:52:15;12.90;54.80
44537;DHT22;30245;51.966;6.292;2022-11-13T05:54:40;12.80;54.80
44537;DHT22;30245;51.966;6.292;2022-11-13T05:57:06;12.80;54.80
44537;DHT22;30245;51.966;6.292;2022-11-13T05:59:31;12.80;54.80
44537;DHT22;30245;51.966;6.292;2022-11-13T06:01:57;12.80;54.80
44537;DHT22;30245;51.966;6.292;2022-11-13T06:04:22;12.70;54.70
44537;DHT22;30245;51.966;6.292;2022-11-13T06:06:48;12.70;54.80
44537;DHT22;30245;51.966;6.292;2022-11-13T06:09:14;12.70;54.80
44537;DHT22;30245;51.966;6.292;2022-11-13T06:11:43;12.70;54.80
44537;DHT22;30245;51.966;6.292;2022-11-13T06:14:09;12.70;54.80
44537;DHT22;30245;51.966;6.292;2022-11-13T06:16:37;12.60;55.40
44537;DHT22;30245;51.966;6.292;2022-11-13T06:19:07;12.60;54.70
44537;DHT22;30245;51.966;6.292;2022-11-13T06:21:35;12.60;54.80
44537;DHT22;30245;51.966;6.292;2022-11-13T06:24:01;12.60;54.70
44537;DHT22;30245;51.966;6.292;2022-11-13T06:26:32;12.60;54.80
44537;DHT22;30245;51.966;6.292;2022-11-13T06:28:59;12.60;54.70
44537;DHT22;30245;51.966;6.292;2022-11-13T06:31:28;12.60;54.90
44537;DHT22;30245;51.966;6.292;2022-11-13T06:33:55;12.60;55.00
44537;DHT22;30245;51.966;6.292;2022-11-13T06:36:27;12.50;54.90
44537;DHT22;30245;51.966;6.292;2022-11-13T06:38:53;12.50;54.90
44537;DHT22;30245;51.966;6.292;2022-11-13T06:41:22;12.50;54.90
44537;DHT22;30245;51.966;6.292;2022-11-13T06:43:48;12.50;55.00
44537;DHT22;30245;51.966;6.292;2022-11-13T06:46:16;12.50;54.90
44537;DHT22;30245;51.966;6.292;2022-11-13T06:48:42;12.50;54.90
44537;DHT22;30245;51.966;6.292;2022-11-13T06:51:14;12.50;54.90
44537;DHT22;30245;51.966;6.292;2022-11-13T06:53:40;12.50;54.90
44537;DHT22;30245;51.966;6.292;2022-11-13T06:56:06;12.40;54.80
44537;DHT22;30245;51.966;6.292;2022-11-13T06:58:32;12.40;54.90
44537;DHT22;30245;51.966;6.292;2022-11-13T07:01:07;12.40;54.90
44537;DHT22;30245;51.966;6.292;2022-11-13T07:03:34;12.40;54.90
44537;DHT22;30245;51.966;6.292;2022-11-13T07:06:03;12.40;54.80
44537;DHT22;30245;51.966;6.292;2022-11-13T07:08:29;12.40;54.80
44537;DHT22;30245;51.966;6.292;2022-11-13T07:10:55;12.40;54.80
44537;DHT22;30245;51.966;6.292;2022-11-13T07:13:22;12.40;54.80
44537;DHT22;30245;51.966;6.292;2022-11-13T07:15:48;12.40;54.90
44537;DHT22;30245;51.966;6.292;2022-11-13T07:18:13;12.40;54.90
44537;DHT22;30245;51.966;6.292;2022-11-13T07:20:39;12.40;54.90
44537;DHT22;30245;51.966;6.292;2022-11-13T07:23:05;12.40;54.90
44537;DHT22;30245;51.966;6.292;2022-11-13T07:25:30;12.40;54.90
44537;DHT22;30245;51.966;6.292;2022-11-13T07:27:56;12.40;54.90
44537;DHT22;30245;51.966;6.292;2022-11-13T07:30:22;12.40;54.90
44537;DHT22;30245;51.966;6.292;2022-11-13T07:32:48;12.50;55.00
44537;DHT22;30245;51.966;6.292;2022-11-13T07:35:14;12.50;55.00
44537;DHT22;30245;51.966;6.292;2022-11-13T07:37:41;12.50;54.90
44537;DHT22;30245;51.966;6.292;2022-11-13T07:40:07;12.50;54.90
44537;DHT22;30245;51.966;6.292;2022-11-13T07:42:34;12.60;54.90
44537;DHT22;30245;51.966;6.292;2022-11-13T07:44:59;12.60;54.90
44537;DHT22;30245;51.966;6.292;2022-11-13T07:47:25;12.60;54.80
44537;DHT22;30245;51.966;6.292;2022-11-13T07:49:51;12.70;54.80
44537;DHT22;30245;51.966;6.292;2022-11-13T07:52:16;12.90;55.00
44537;DHT22;30245;51.966;6.292;2022-11-13T07:54:42;13.30;55.00
44537;DHT22;30245;51.966;6.292;2022-11-13T07:57:08;13.80;54.70
44537;DHT22;30245;51.966;6.292;2022-11-13T07:59:33;14.30;54.00
44537;DHT22;30245;51.966;6.292;2022-11-13T08:01:59;14.90;53.20
44537;DHT22;30245;51.966;6.292;2022-11-13T08:04:25;15.40;52.40
44537;DHT22;30245;51.966;6.292;2022-11-13T08:06:50;16.00;51.50
44537;DHT22;30245;51.966;6.292;2022-11-13T08:09:16;16.50;50.80
44537;DHT22;30245;51.966;6.292;2022-11-13T08:11:42;16.90;50.10
44537;DHT22;30245;51.966;6.292;2022-11-13T08:14:07;17.30;49.50
44537;DHT22;30245;51.966;6.292;2022-11-13T08:16:33;17.60;49.10
44537;DHT22;30245;51.966;6.292;2022-11-13T08:18:58;18.00;48.80
44537;DHT22;30245;51.966;6.292;2022-11-13T08:21:24;18.40;48.20
44537;DHT22;30245;51.966;6.292;2022-11-13T08:23:49;18.80;47.70
44537;DHT22;30245;51.966;6.292;2022-11-13T08:26:16;19.10;47.30
44537;DHT22;30245;51.966;6.292;2022-11-13T08:28:43;19.50;46.80
44537;DHT22;30245;51.966;6.292;2022-11-13T08:31:11;19.80;46.30
44537;DHT22;30245;51.966;6.292;2022-11-13T08:33:37;20.20;45.60
44537;DHT22;30245;51.966;6.292;2022-11-13T08:36:03;20.50;45.10
44537;DHT22;30245;51.966;6.292;2022-11-13T08:38:29;20.90;44.70
44537;DHT22;30245;51.966;6.292;2022-11-13T08:40:59;21.20;44.30
44537;DHT22;30245;51.966;6.292;2022-11-13T08:43:25;21.40;43.70
44537;DHT22;30245;51.966;6.292;2022-11-13T08:45:51;21.70;43.30
44537;DHT22;30245;51.966;6.292;2022-11-13T08:48:17;21.90;42.90
44537;DHT22;30245;51.966;6.292;2022-11-13T08:50:43;22.10;42.40
44537;DHT22;30245;51.966;6.292;2022-11-13T08:53:09;22.30;42.00
44537;DHT22;30245;51.966;6.292;2022-11-13T08:55:35;22.60;41.80
44537;DHT22;30245;51.966;6.292;2022-11-13T08:58:02;22.80;41.30
44537;DHT22;30245;51.966;6.292;2022-11-13T09:00:29;23.10;40.90
44537;DHT22;30245;51.966;6.292;2022-11-13T09:02:57;23.30;40.40
44537;DHT22;30245;51.966;6.292;2022-11-13T09:05:24;23.50;40.10
44537;DHT22;30245;51.966;6.292;2022-11-13T09:07:54;23.70;39.90
44537;DHT22;30245;51.966;6.292;2022-11-13T09:10:20;24.00;39.70
44537;DHT22;30245;51.966;6.292;2022-11-13T09:12:46;24.30;39.20
44537;DHT22;30245;51.966;6.292;2022-11-13T09:15:12;24.50;38.60
44537;DHT22;30245;51.966;6.292;2022-11-13T09:17:38;24.70;38.00
44537;DHT22;30245;51.966;6.292;2022-11-13T09:20:04;24.80;37.60
44537;DHT22;30245;51.966;6.292;2022-11-13T09:22:36;24.90;37.50
44537;DHT22;30245;51.966;6.292;2022-11-13T09:25:02;25.00;37.30
44537;DHT22;30245;51.966;6.292;2022-11-13T09:27:28;25.00;37.10
44537;DHT22;30245;51.966;6.292;2022-11-13T09:29:54;25.20;37.00
44537;DHT22;30245;51.966;6.292;2022-11-13T09:32:19;25.30;36.80
44537;DHT22;30245;51.966;6.292;2022-11-13T09:34:45;25.40;36.70
44537;DHT22;30245;51.966;6.292;2022-11-13T09:37:14;25.50;36.60
44537;DHT22;30245;51.966;6.292;2022-11-13T09:39:40;25.60;36.60
44537;DHT22;30245;51.966;6.292;2022-11-13T09:42:15;25.60;35.90
44537;DHT22;30245;51.966;6.292;2022-11-13T09:44:44;25.50;35.60
44537;DHT22;30245;51.966;6.292;2022-11-13T09:47:31;25.50;35.40
44537;DHT22;30245;51.966;6.292;2022-11-13T09:52:34;26.20;35.30
44537;DHT22;30245;51.966;6.292;2022-11-13T09:55:01;26.50;34.40
44537;DHT22;30245;51.966;6.292;2022-11-13T09:57:43;26.90;34.10
44537;DHT22;30245;51.966;6.292;2022-11-13T10:00:15;27.10;33.30
44537;DHT22;30245;51.966;6.292;2022-11-13T10:06:24;27.30;32.80
44537;DHT22;30245;51.966;6.292;2022-11-13T10:09:10;27.50;32.70
44537;DHT22;30245;51.966;6.292;2022-11-13T10:11:42;27.30;32.40
44537;DHT22;30245;51.966;6.292;2022-11-13T10:17:07;26.60;32.60
44537;DHT22;30245;51.966;6.292;2022-11-13T10:25:08;26.20;33.30
44537;DHT22;30245;51.966;6.292;2022-11-13T10:27:36;26.10;33.20
44537;DHT22;30245;51.966;6.292;2022-11-13T10:30:05;26.10;33.40
44537;DHT22;30245;51.966;6.292;2022-11-13T10:32:32;26.10;33.40
44537;DHT22;30245;51.966;6.292;2022-11-13T10:38:05;26.30;33.10
44537;DHT22;30245;51.966;6.292;2022-11-13T10:40:34;26.40;33.30
44537;DHT22;30245;51.966;6.292;2022-11-13T10:43:05;26.40;32.90
44537;DHT22;30245;51.966;6.292;2022-11-13T10:45:32;26.40;32.90
44537;DHT22;30245;51.966;6.292;2022-11-13T10:47:58;26.50;32.90
44537;DHT22;30245;51.966;6.292;2022-11-13T10:50:27;26.60;33.00
44537;DHT22;30245;51.966;6.292;2022-11-13T10:52:54;26.70;32.60
44537;DHT22;30245;51.966;6.292;2022-11-13T10:55:34;26.90;32.60
44537;DHT22;30245;51.966;6.292;2022-11-13T10:58:17;27.00;32.40
44537;DHT22;30245;51.966;6.292;2022-11-13T11:00:43;27.20;32.20
44537;DHT22;30245;51.966;6.292;2022-11-13T11:03:20;27.20;31.70
44537;DHT22;30245;51.966;6.292;2022-11-13T11:06:01;27.20;31.60
44537;DHT22;30245;51.966;6.292;2022-11-13T11:08:32;27.30;31.40
44537;DHT22;30245;51.966;6.292;2022-11-13T11:11:06;27.30;31.60
44537;DHT22;30245;51.966;6.292;2022-11-13T11:13:50;27.40;31.50
44537;DHT22;30245;51.966;6.292;2022-11-13T11:16:20;27.50;31.40
44537;DHT22;30245;51.966;6.292;2022-11-13T11:18:51;27.40;31.20
44537;DHT22;30245;51.966;6.292;2022-11-13T11:21:22;27.40;31.20
44537;DHT22;30245;51.966;6.292;2022-11-13T11:24:02;27.50;31.50
44537;DHT22;30245;51.966;6.292;2022-11-13T11:26:33;27.80;31.20
44537;DHT22;30245;51.966;6.292;2022-11-13T11:34:33;28.60;31.10
44537;DHT22;30245;51.966;6.292;2022-11-13T11:37:21;28.80;30.60
44537;DHT22;30245;51.966;6.292;2022-11-13T11:40:14;28.80;30.40
44537;DHT22;30245;51.966;6.292;2022-11-13T11:45:45;29.10;30.30
44537;DHT22;30245;51.966;6.292;2022-11-13T11:48:20;29.10;30.00
44537;DHT22;30245;51.966;6.292;2022-11-13T11:51:02;29.10;30.00
44537;DHT22;30245;51.966;6.292;2022-11-13T11:56:38;29.00;29.80
44537;DHT22;30245;51.966;6.292;2022-11-13T11:59:09;28.90;29.80
44537;DHT22;30245;51.966;6.292;2022-11-13T12:07:28;28.80;29.90
44537;DHT22;30245;51.966;6.292;2022-11-13T12:10:23;28.80;29.80
44537;DHT22;30245;51.966;6.292;2022-11-13T12:13:04;28.80;29.80
44537;DHT22;30245;51.966;6.292;2022-11-13T12:19:02;28.90;29.80
44537;DHT22;30245;51.966;6.292;2022-11-13T12:29:49;29.70;29.60
44537;DHT22;30245;51.966;6.292;2022-11-13T12:34:55;30.10;29.40
44537;DHT22;30245;51.966;6.292;2022-11-13T12:40:44;30.90;29.40
44537;DHT22;30245;51.966;6.292;2022-11-13T12:43:21;31.20;29.00
44537;DHT22;30245;51.966;6.292;2022-11-13T12:45:51;31.40;28.70
44537;DHT22;30245;51.966;6.292;2022-11-13T12:50:44;31.90;28.50
44537;DHT22;30245;51.966;6.292;2022-11-13T12:53:25;32.20;28.40
44537;DHT22;30245;51.966;6.292;2022-11-13T12:55:59;32.50;28.80
44537;DHT22;30245;51.966;6.292;2022-11-13T12:58:28;32.70;28.00
44537;DHT22;30245;51.966;6.292;2022-11-13T13:06:28;33.10;27.80
44537;DHT22;30245;51.966;6.292;2022-11-13T13:17:18;33.00;27.70
44537;DHT22;30245;51.966;6.292;2022-11-13T13:19:44;32.70;27.70
44537;DHT22;30245;51.966;6.292;2022-11-13T13:22:28;32.40;27.80
44537;DHT22;30245;51.966;6.292;2022-11-13T13:25:43;32.20;27.80
44537;DHT22;30245;51.966;6.292;2022-11-13T13:28:01;32.30;27.80
44537;DHT22;30245;51.966;6.292;2022-11-13T13:30:29;32.40;27.80
44537;DHT22;30245;51.966;6.292;2022-11-13T13:38:54;32.40;27.60
44537;DHT22;30245;51.966;6.292;2022-11-13T13:46:56;31.90;28.10
44537;DHT22;30245;51.966;6.292;2022-11-13T13:49:23;31.60;28.30
44537;DHT22;30245;51.966;6.292;2022-11-13T13:51:54;31.40;28.60
44537;DHT22;30245;51.966;6.292;2022-11-13T13:54:29;31.10;28.70
44537;DHT22;30245;51.966;6.292;2022-11-13T13:56:57;31.00;28.90
44537;DHT22;30245;51.966;6.292;2022-11-13T13:59:34;30.80;29.10
44537;DHT22;30245;51.966;6.292;2022-11-13T14:02:02;30.70;29.30
44537;DHT22;30245;51.966;6.292;2022-11-13T14:04:32;30.70;29.40
44537;DHT22;30245;51.966;6.292;2022-11-13T14:07:00;30.90;29.50
44537;DHT22;30245;51.966;6.292;2022-11-13T14:09:28;31.10;29.50
44537;DHT22;30245;51.966;6.292;2022-11-13T14:12:03;31.30;29.50
44537;DHT22;30245;51.966;6.292;2022-11-13T14:14:29;31.50;29.20
44537;DHT22;30245;51.966;6.292;2022-11-13T14:16:56;31.70;29.10
44537;DHT22;30245;51.966;6.292;2022-11-13T14:19:22;32.00;28.90
44537;DHT22;30245;51.966;6.292;2022-11-13T14:21:54;32.10;29.00
44537;DHT22;30245;51.966;6.292;2022-11-13T14:24:53;32.30;29.00
44537;DHT22;30245;51.966;6.292;2022-11-13T14:27:23;32.30;28.90
44537;DHT22;30245;51.966;6.292;2022-11-13T14:29:52;32.20;28.90
44537;DHT22;30245;51.966;6.292;2022-11-13T14:32:21;31.90;28.90
44537;DHT22;30245;51.966;6.292;2022-11-13T14:34:52;31.50;29.00
44537;DHT22;30245;51.966;6.292;2022-11-13T14:39:51;31.20;29.50
44537;DHT22;30245;51.966;6.292;2022-11-13T14:42:33;31.20;29.40
44537;DHT22;30245;51.966;6.292;2022-11-13T14:47:38;30.70;29.60
44537;DHT22;30245;51.966;6.292;2022-11-13T14:50:28;30.50;29.80
44537;DHT22;30245;51.966;6.292;2022-11-13T14:52:57;30.00;30.00
44537;DHT22;30245;51.966;6.292;2022-11-13T14:55:29;29.50;30.30
44537;DHT22;30245;51.966;6.292;2022-11-13T14:57:55;28.90;30.70
44537;DHT22;30245;51.966;6.292;2022-11-13T15:00:36;28.40;31.20
44537;DHT22;30245;51.966;6.292;2022-11-13T15:03:04;27.90;31.70
44537;DHT22;30245;51.966;6.292;2022-11-13T15:05:30;27.50;32.20
44537;DHT22;30245;51.966;6.292;2022-11-13T15:07:57;27.10;32.50
44537;DHT22;30245;51.966;6.292;2022-11-13T15:10:25;26.70;32.90
44537;DHT22;30245;51.966;6.292;2022-11-13T15:12:51;26.30;33.30
44537;DHT22;30245;51.966;6.292;2022-11-13T15:15:24;26.00;33.50
44537;DHT22;30245;51.966;6.292;2022-11-13T15:17:51;25.70;33.70
44537;DHT22;30245;51.966;6.292;2022-11-13T15:20:27;25.50;34.00
44537;DHT22;30245;51.966;6.292;2022-11-13T15:22:54;25.20;34.20
44537;DHT22;30245;51.966;6.292;2022-11-13T15:25:23;24.90;34.40
44537;DHT22;30245;51.966;6.292;2022-11-13T15:27:49;24.70;34.70
44537;DHT22;30245;51.966;6.292;2022-11-13T15:30:15;24.50;34.80
44537;DHT22;30245;51.966;6.292;2022-11-13T15:32:41;24.30;35.10
44537;DHT22;30245;51.966;6.292;2022-11-13T15:35:15;24.10;35.20
44537;DHT22;30245;51.966;6.292;2022-11-13T15:37:40;23.90;35.40
44537;DHT22;30245;51.966;6.292;2022-11-13T15:40:07;23.80;35.70
44537;DHT22;30245;51.966;6.292;2022-11-13T15:42:34;23.60;35.90
44537;DHT22;30245;51.966;6.292;2022-11-13T15:45:00;23.40;36.10
44537;DHT22;30245;51.966;6.292;2022-11-13T15:47:29;23.30;36.30
44537;DHT22;30245;51.966;6.292;2022-11-13T15:49:55;23.10;36.50
44537;DHT22;30245;51.966;6.292;2022-11-13T15:52:21;23.00;36.70
44537;DHT22;30245;51.966;6.292;2022-11-13T15:54:47;22.80;36.90
44537;DHT22;30245;51.966;6.292;2022-11-13T15:57:19;22.60;37.20
44537;DHT22;30245;51.966;6.292;2022-11-13T15:59:45;22.40;37.50
44537;DHT22;30245;51.966;6.292;2022-11-13T16:02:10;22.30;37.70
44537;DHT22;30245;51.966;6.292;2022-11-13T16:04:36;22.20;37.90
44537;DHT22;30245;51.966;6.292;2022-11-13T16:07:05;22.00;38.10
44537;DHT22;30245;51.966;6.292;2022-11-13T16:09:31;21.90;38.20
44537;DHT22;30245;51.966;6.292;2022-11-13T16:11:56;21.80;38.40
44537;DHT22;30245;51.966;6.292;2022-11-13T16:14:24;21.70;38.60
44537;DHT22;30245;51.966;6.292;2022-11-13T16:16:50;21.60;38.70
44537;DHT22;30245;51.966;6.292;2022-11-13T16:19:22;21.40;38.80
44537;DHT22;30245;51.966;6.292;2022-11-13T16:21:48;21.30;39.00
44537;DHT22;30245;51.966;6.292;2022-11-13T16:24:14;21.20;39.10
44537;DHT22;30245;51.966;6.292;2022-11-13T16:26:43;21.10;39.30
44537;DHT22;30245;51.966;6.292;2022-11-13T16:29:17;21.00;39.40
44537;DHT22;30245;51.966;6.292;2022-11-13T16:31:43;20.90;39.50
44537;DHT22;30245;51.966;6.292;2022-11-13T16:34:09;20.70;39.60
44537;DHT22;30245;51.966;6.292;2022-11-13T16:36:34;20.60;39.70
44537;DHT22;30245;51.966;6.292;2022-11-13T16:39:00;20.60;39.90
44537;DHT22;30245;51.966;6.292;2022-11-13T16:41:26;20.50;39.90
44537;DHT22;30245;51.966;6.292;2022-11-13T16:43:51;20.40;40.10
44537;DHT22;30245;51.966;6.292;2022-11-13T16:46:23;20.30;40.20
44537;DHT22;30245;51.966;6.292;2022-11-13T16:48:50;20.20;40.30
44537;DHT22;30245;51.966;6.292;2022-11-13T16:51:15;20.10;40.40
44537;DHT22;30245;51.966;6.292;2022-11-13T16:53:41;20.00;40.50
44537;DHT22;30245;51.966;6.292;2022-11-13T16:56:17;19.90;40.70
44537;DHT22;30245;51.966;6.292;2022-11-13T16:58:44;19.80;40.90
44537;DHT22;30245;51.966;6.292;2022-11-13T17:01:14;19.70;40.90
44537;DHT22;30245;51.966;6.292;2022-11-13T17:03:40;19.70;41.00
44537;DHT22;30245;51.966;6.292;2022-11-13T17:06:18;19.70;41.10